• Join FlightAware (Why Join?)
  • Login
  • US Flag 
12:28AM EDT


 

Airport Tracker/Info


-or-


 

Live Flight TrackerFlight Track Log ✈ SLI534 ✈ 29-Jun-2013 ✈ MMMD / MID - MMMX / MEX

Flight Track Log - Related Links

Times and Time Zones

All times are in EDT time to prevent confusion due to time zone crossing. See the SLI534 flight status page for this flight to view local times or setup timezone preferences in your user account.

Time Position Orientation Groundspeed Altitude Reporting Facility
EDT Latitude Longitude Course Direction KTS MPH feet Rate Location/Type
05:47PM 20.8179 -90.5480 262° West  Level Estimated
05:48PM 20.8043 -90.6468 262° West  Level Estimated
05:49PM 20.7908 -90.7457 262° West  Level Estimated
05:50PM 20.7771 -90.8445 262° West  Level Estimated
05:51PM 20.7635 -90.9432 262° West  Level Estimated
05:52PM 20.7497 -91.0420 262° West  Level Estimated
05:53PM 20.7359 -91.1408 262° West  Level Estimated
05:54PM 20.7221 -91.2395 261° West  Level Estimated
05:55PM 20.7082 -91.3382 261° West  Level Estimated
05:56PM 20.6942 -91.4369 261° West  Level Estimated
05:57PM 20.6801 -91.5356 261° West  Level Estimated
05:58PM 20.6661 -91.6342 261° West  Level Estimated
05:59PM 20.6519 -91.7329 261° West  Level Estimated
06:00PM 20.6377 -91.8315 261° West  Level Estimated
06:01PM 20.6235 -91.9301 261° West  Level Estimated
06:02PM 20.6092 -92.0287 261° West  Level Estimated
06:03PM 20.5948 -92.1272 261° West  Level Estimated
06:04PM 20.5804 -92.2258 261° West  Level Estimated
06:05PM 20.5659 -92.3243 261° West  Level Estimated
06:06PM 20.5514 -92.4228 261° West  Level Estimated
06:07PM 20.5368 -92.5213 261° West  Level Estimated
06:08PM 20.5222 -92.6198 261° West  Level Estimated
06:09PM 20.5075 -92.7182 261° West  Level Estimated
06:10PM 20.4927 -92.8167 261° West  Level Estimated
06:11PM 20.4779 -92.9151 261° West  Level Estimated
06:12PM 20.4631 -93.0135 261° West  Level Estimated
06:13PM 20.4481 -93.1118 261° West  Level Estimated
06:14PM 20.4332 -93.2102 261° West  Level Estimated
06:15PM 20.4181 -93.3085 261° West  Level Estimated
06:16PM 20.4031 -93.4069 261° West  Level Estimated
06:17PM 20.3879 -93.5052 261° West  Level Estimated
06:18PM 20.3727 -93.6034 261° West  Level Estimated
06:19PM 20.3575 -93.7017 261° West  Level Estimated
06:20PM 20.3422 -93.7999 261° West  Level Estimated
06:21PM 20.3268 -93.8982 261° West  Level Estimated
06:22PM 20.3114 -93.9964 261° West  Level Estimated
06:23PM 20.2959 -94.0946 260° West  Level Estimated
06:24PM 20.2804 -94.1927 260° West  Level Estimated
06:25PM 20.2648 -94.2908 260° West  Level Estimated
06:26PM 20.2492 -94.3890 260° West  Level Estimated
06:27PM 20.2335 -94.4871 260° West  Level Estimated
06:28PM 20.2178 -94.5852 260° West  Level Estimated
06:29PM 20.2020 -94.6832 260° West  Level Estimated
06:30PM 20.1861 -94.7812 260° West  Level Estimated
06:31PM 20.1702 -94.8793 260° West  Level Estimated
06:32PM 20.1543 -94.9773 260° West  Level Estimated
06:33PM 20.1383 -95.0752 260° West  Level Estimated
06:34PM 20.1222 -95.1732 260° West  Level Estimated
06:35PM 20.1061 -95.2711 260° West  Level Estimated
06:36PM 20.0899 -95.3691 260° West  Level Estimated
06:37PM 20.0737 -95.4670 260° West  Level Estimated
06:38PM 20.0574 -95.5648 260° West  Level Estimated
06:39PM 20.0410 -95.6627 260° West  Level Estimated
06:40PM 20.0247 -95.7606 260° West  Level Estimated
06:41PM 20.0082 -95.8584 260° West  Level Estimated
06:42PM 19.9917 -95.9562 260° West  Level Estimated
06:43PM 19.9752 -96.0539 260° West  Level Estimated
06:44PM 19.9586 -96.1517 260° West  Level Estimated
06:45PM 19.9419 -96.2495 260° West  Level Estimated
06:46PM 19.9252 -96.3472 260° West  Level Estimated
06:47PM 19.9084 -96.4449 260° West  Level Estimated
06:48PM 19.8916 -96.5425 260° West  Level Estimated
06:49PM 19.8747 -96.6402 260° West  Level Estimated
06:50PM 19.8578 -96.7378 260° West  Level Estimated
06:51PM 19.8408 -96.8355 260° West  Level Estimated
06:52PM 19.8238 -96.9331 260° West  Level Estimated
06:53PM 19.8067 -97.0306 259° West  Level Estimated
06:54PM 19.7896 -97.1282 259° West  Level Estimated
06:55PM 19.7724 -97.2257 259° West  Level Estimated
06:56PM 19.7551 -97.3232 259° West  Level Estimated
06:57PM 19.7378 -97.4207 259° West  Level Estimated
06:58PM 19.7205 -97.5182 259° West  Level Estimated
06:59PM 19.7031 -97.6156 259° West  Level Estimated
07:00PM 19.6856 -97.7131 259° West  Level Estimated
07:01PM 19.6681 -97.8105 259° West  Level Estimated
07:02PM 19.6506 -97.9078 259° West  Level Estimated
07:03PM 19.6330 -98.0052 259° West  Level Estimated
07:04PM 19.6153 -98.1025 259° West  Level Estimated
07:05PM 19.5976 -98.1999 259° West  Level Estimated
07:06PM 19.5798 -98.2972 259° West  Level Estimated
07:07PM 19.5620 -98.3944 259° West  Level Estimated
07:08PM 19.5441 -98.4917 259° West  Level Estimated
07:09PM 19.5262 -98.5889 259° West  Level Estimated
07:10PM 19.5082 -98.6861 259° West  Level Estimated
07:11PM 19.4902 -98.7833 259° West  Level Estimated
07:12PM 19.4721 -98.8805 259° West  Level Estimated
07:13PM 19.4540 -98.9776 259° West  Level Estimated
07:14PM 19.4363 -99.0721 259° West  Level Estimated
07:15PM 19.4363 -99.0721 43° Northeast  Level Estimated
07:16PM 19.4363 -99.0721 43° Northeast  Level Estimated
07:17PM 19.4363 -99.0721 43° Northeast  Level Estimated